sensor_id;sensor_type;location;lat;lon;timestamp;pressure;altitude;pressure_sealevel;temperature;humidity
26083;BME280;13848;49.018;12.078;2022-12-29T00:00:54;97520.69;;;1.78;86.32
26083;BME280;13848;49.018;12.078;2022-12-29T00:03:20;97528.81;;;1.84;85.79
26083;BME280;13848;49.018;12.078;2022-12-29T00:05:54;97520.69;;;1.78;85.95
26083;BME280;13848;49.018;12.078;2022-12-29T00:08:20;97523.34;;;1.86;86.27
26083;BME280;13848;49.018;12.078;2022-12-29T00:10:45;97515.84;;;1.90;85.99
26083;BME280;13848;49.018;12.078;2022-12-29T00:13:11;97515.53;;;1.93;86.02
26083;BME280;13848;49.018;12.078;2022-12-29T00:15:39;97513.88;;;1.83;85.99
26083;BME280;13848;49.018;12.078;2022-12-29T00:18:05;97516.84;;;1.89;85.78
26083;BME280;13848;49.018;12.078;2022-12-29T00:20:34;97511.69;;;1.95;85.38
26083;BME280;13848;49.018;12.078;2022-12-29T00:23:00;97508.22;;;1.86;85.73
26083;BME280;13848;49.018;12.078;2022-12-29T00:25:25;97498.38;;;2.03;85.58
26083;BME280;13848;49.018;12.078;2022-12-29T00:27:51;97504.50;;;2.04;85.05
26083;BME280;13848;49.018;12.078;2022-12-29T00:30:19;97490.69;;;2.08;85.29
26083;BME280;13848;49.018;12.078;2022-12-29T00:32:47;97501.47;;;2.15;84.79
26083;BME280;13848;49.018;12.078;2022-12-29T00:35:17;97491.75;;;1.91;85.46
26083;BME280;13848;49.018;12.078;2022-12-29T00:37:47;97492.59;;;1.92;85.11
26083;BME280;13848;49.018;12.078;2022-12-29T00:40:13;97484.75;;;1.98;85.23
26083;BME280;13848;49.018;12.078;2022-12-29T00:42:39;97497.50;;;2.03;84.96
26083;BME280;13848;49.018;12.078;2022-12-29T00:45:05;97491.72;;;1.99;84.82
26083;BME280;13848;49.018;12.078;2022-12-29T00:47:31;97493.88;;;2.04;84.85
26083;BME280;13848;49.018;12.078;2022-12-29T00:49:59;97505.22;;;1.98;84.90
26083;BME280;13848;49.018;12.078;2022-12-29T00:52:25;97496.72;;;1.94;85.03
26083;BME280;13848;49.018;12.078;2022-12-29T00:54:50;97492.88;;;1.97;84.70
26083;BME280;13848;49.018;12.078;2022-12-29T00:57:16;97494.53;;;2.06;84.95
26083;BME280;13848;49.018;12.078;2022-12-29T00:59:42;97491.22;;;2.04;84.66
26083;BME280;13848;49.018;12.078;2022-12-29T01:02:09;97493.25;;;1.94;85.06
26083;BME280;13848;49.018;12.078;2022-12-29T01:04:35;97491.91;;;1.98;84.72
26083;BME280;13848;49.018;12.078;2022-12-29T01:07:03;97492.25;;;1.95;84.66
26083;BME280;13848;49.018;12.078;2022-12-29T01:09:29;97499.53;;;2.01;84.84
26083;BME280;13848;49.018;12.078;2022-12-29T01:11:55;97489.94;;;1.92;84.93
26083;BME280;13848;49.018;12.078;2022-12-29T01:14:22;97490.91;;;1.99;84.82
26083;BME280;13848;49.018;12.078;2022-12-29T01:16:48;97488.63;;;1.88;84.78
26083;BME280;13848;49.018;12.078;2022-12-29T01:19:14;97483.31;;;1.79;84.96
26083;BME280;13848;49.018;12.078;2022-12-29T01:21:40;97491.00;;;1.74;85.24
26083;BME280;13848;49.018;12.078;2022-12-29T01:24:08;97489.00;;;1.76;85.92
26083;BME280;13848;49.018;12.078;2022-12-29T01:26:34;97491.00;;;1.74;85.39
26083;BME280;13848;49.018;12.078;2022-12-29T01:29:00;97494.66;;;1.65;85.54
26083;BME280;13848;49.018;12.078;2022-12-29T01:31:26;97491.00;;;1.66;85.68
26083;BME280;13848;49.018;12.078;2022-12-29T01:33:52;97474.75;;;1.61;86.18
26083;BME280;13848;49.018;12.078;2022-12-29T01:36:18;97488.34;;;1.74;86.00
26083;BME280;13848;49.018;12.078;2022-12-29T01:38:44;97478.69;;;1.81;85.46
26083;BME280;13848;49.018;12.078;2022-12-29T01:41:14;97478.53;;;1.75;85.04
26083;BME280;13848;49.018;12.078;2022-12-29T01:43:42;97476.19;;;1.80;85.18
26083;BME280;13848;49.018;12.078;2022-12-29T01:46:15;97487.78;;;1.87;85.05
26083;BME280;13848;49.018;12.078;2022-12-29T01:48:45;97465.25;;;1.67;85.23
26083;BME280;13848;49.018;12.078;2022-12-29T01:51:11;97464.44;;;1.74;85.12
26083;BME280;13848;49.018;12.078;2022-12-29T01:53:37;97468.38;;;1.78;85.17
26083;BME280;13848;49.018;12.078;2022-12-29T01:56:07;97473.41;;;1.65;85.51
26083;BME280;13848;49.018;12.078;2022-12-29T01:58:39;97466.44;;;1.64;85.47
26083;BME280;13848;49.018;12.078;2022-12-29T02:01:07;97460.78;;;1.67;85.50
26083;BME280;13848;49.018;12.078;2022-12-29T02:03:34;97463.78;;;1.64;85.23
26083;BME280;13848;49.018;12.078;2022-12-29T02:06:04;97461.44;;;1.61;85.15
26083;BME280;13848;49.018;12.078;2022-12-29T02:08:31;97454.50;;;1.60;85.56
26083;BME280;13848;49.018;12.078;2022-12-29T02:10:59;97451.97;;;1.75;84.91
26083;BME280;13848;49.018;12.078;2022-12-29T02:13:26;97446.34;;;1.70;84.87
26083;BME280;13848;49.018;12.078;2022-12-29T02:16:00;97448.44;;;1.82;84.82
26083;BME280;13848;49.018;12.078;2022-12-29T02:18:37;97444.31;;;1.80;84.67
26083;BME280;13848;49.018;12.078;2022-12-29T02:21:40;97454.78;;;1.73;85.07
26083;BME280;13848;49.018;12.078;2022-12-29T02:27:31;97437.81;;;1.82;84.63
26083;BME280;13848;49.018;12.078;2022-12-29T02:30:07;97441.94;;;1.85;84.35
26083;BME280;13848;49.018;12.078;2022-12-29T02:32:40;97446.09;;;1.88;83.90
26083;BME280;13848;49.018;12.078;2022-12-29T02:35:17;97451.97;;;1.67;84.66
26083;BME280;13848;49.018;12.078;2022-12-29T02:37:52;97446.84;;;1.65;84.69
26083;BME280;13848;49.018;12.078;2022-12-29T02:40:25;97447.16;;;1.62;84.87
26083;BME280;13848;49.018;12.078;2022-12-29T02:43:01;97448.66;;;1.65;84.38
26083;BME280;13848;49.018;12.078;2022-12-29T02:45:32;97449.31;;;1.67;84.32
26083;BME280;13848;49.018;12.078;2022-12-29T02:48:10;97450.44;;;1.80;84.46
26083;BME280;13848;49.018;12.078;2022-12-29T02:50:42;97440.09;;;1.85;84.10
26083;BME280;13848;49.018;12.078;2022-12-29T02:53:12;97454.78;;;1.73;84.23
26083;BME280;13848;49.018;12.078;2022-12-29T02:55:47;97432.44;;;1.91;83.63
26083;BME280;13848;49.018;12.078;2022-12-29T02:58:17;97422.88;;;1.73;84.04
26083;BME280;13848;49.018;12.078;2022-12-29T03:00:53;97428.81;;;1.83;83.61
26083;BME280;13848;49.018;12.078;2022-12-29T03:03:31;97428.19;;;1.81;84.04
26083;BME280;13848;49.018;12.078;2022-12-29T03:06:13;97427.38;;;1.73;83.69
26083;BME280;13848;49.018;12.078;2022-12-29T03:08:48;97416.97;;;1.63;84.11
26083;BME280;13848;49.018;12.078;2022-12-29T03:11:15;97428.34;;;1.80;84.48
26083;BME280;13848;49.018;12.078;2022-12-29T03:13:44;97423.31;;;1.93;83.73
26083;BME280;13848;49.018;12.078;2022-12-29T03:16:20;97421.28;;;1.95;83.39
26083;BME280;13848;49.018;12.078;2022-12-29T03:18:55;97419.47;;;1.96;83.62
26083;BME280;13848;49.018;12.078;2022-12-29T03:21:27;97404.88;;;1.92;83.53
26083;BME280;13848;49.018;12.078;2022-12-29T03:23:55;97414.53;;;1.84;83.73
26083;BME280;13848;49.018;12.078;2022-12-29T03:26:21;97414.19;;;1.88;83.72
26083;BME280;13848;49.018;12.078;2022-12-29T03:28:51;97397.88;;;1.91;83.42
26083;BME280;13848;49.018;12.078;2022-12-29T03:31:20;97407.22;;;1.86;83.54
26083;BME280;13848;49.018;12.078;2022-12-29T03:33:48;97393.25;;;1.84;83.91
26083;BME280;13848;49.018;12.078;2022-12-29T03:36:22;97398.56;;;1.84;83.74
26083;BME280;13848;49.018;12.078;2022-12-29T03:38:57;97395.28;;;1.82;83.67
26083;BME280;13848;49.018;12.078;2022-12-29T03:41:30;97390.91;;;1.90;83.65
26083;BME280;13848;49.018;12.078;2022-12-29T03:43:56;97384.66;;;1.82;83.80
26083;BME280;13848;49.018;12.078;2022-12-29T03:46:22;97387.47;;;1.81;83.77
26083;BME280;13848;49.018;12.078;2022-12-29T03:48:48;97396.63;;;1.78;83.65
26083;BME280;13848;49.018;12.078;2022-12-29T03:51:14;97381.72;;;1.69;83.92
26083;BME280;13848;49.018;12.078;2022-12-29T03:53:41;97385.25;;;1.93;83.93
26083;BME280;13848;49.018;12.078;2022-12-29T03:56:07;97386.41;;;1.90;83.71
26083;BME280;13848;49.018;12.078;2022-12-29T03:58:34;97395.31;;;1.74;83.81
26083;BME280;13848;49.018;12.078;2022-12-29T04:01:00;97386.34;;;1.75;84.05
26083;BME280;13848;49.018;12.078;2022-12-29T04:03:25;97394.19;;;1.69;84.15
26083;BME280;13848;49.018;12.078;2022-12-29T04:05:51;97391.00;;;1.73;83.64
26083;BME280;13848;49.018;12.078;2022-12-29T04:08:17;97392.66;;;1.74;83.92
26083;BME280;13848;49.018;12.078;2022-12-29T04:10:45;97390.78;;;1.83;84.00
26083;BME280;13848;49.018;12.078;2022-12-29T04:13:10;97393.97;;;1.78;84.06
26083;BME280;13848;49.018;12.078;2022-12-29T04:15:46;97391.41;;;1.93;83.35
26083;BME280;13848;49.018;12.078;2022-12-29T04:18:12;97386.22;;;2.00;83.24
26083;BME280;13848;49.018;12.078;2022-12-29T04:20:41;97387.09;;;1.92;83.40
26083;BME280;13848;49.018;12.078;2022-12-29T04:23:07;97385.84;;;2.03;83.06
26083;BME280;13848;49.018;12.078;2022-12-29T04:25:33;97384.88;;;2.04;83.19
26083;BME280;13848;49.018;12.078;2022-12-29T04:28:01;97385.50;;;2.06;83.28
26083;BME280;13848;49.018;12.078;2022-12-29T04:30:27;97380.31;;;2.12;82.96
26083;BME280;13848;49.018;12.078;2022-12-29T04:32:53;97394.91;;;2.17;82.58
26083;BME280;13848;49.018;12.078;2022-12-29T04:35:19;97386.34;;;2.06;83.10
26083;BME280;13848;49.018;12.078;2022-12-29T04:37:45;97386.94;;;2.17;82.74
26083;BME280;13848;49.018;12.078;2022-12-29T04:40:11;97394.63;;;2.11;82.38
26083;BME280;13848;49.018;12.078;2022-12-29T04:42:37;97394.75;;;2.18;82.87
26083;BME280;13848;49.018;12.078;2022-12-29T04:45:06;97393.09;;;2.17;82.77
26083;BME280;13848;49.018;12.078;2022-12-29T04:47:32;97390.94;;;2.12;82.59
26083;BME280;13848;49.018;12.078;2022-12-29T04:49:58;97396.44;;;2.11;82.76
26083;BME280;13848;49.018;12.078;2022-12-29T04:52:24;97400.00;;;2.03;83.03
26083;BME280;13848;49.018;12.078;2022-12-29T04:54:50;97400.16;;;2.02;83.14
26083;BME280;13848;49.018;12.078;2022-12-29T04:57:16;97403.28;;;2.05;83.38
26083;BME280;13848;49.018;12.078;2022-12-29T04:59:42;97407.78;;;2.05;83.42
26083;BME280;13848;49.018;12.078;2022-12-29T05:02:09;97408.44;;;2.07;83.72
26083;BME280;13848;49.018;12.078;2022-12-29T05:04:35;97400.41;;;2.15;83.15
26083;BME280;13848;49.018;12.078;2022-12-29T05:07:01;97409.69;;;2.19;83.03
26083;BME280;13848;49.018;12.078;2022-12-29T05:09:27;97399.22;;;2.18;83.20
26083;BME280;13848;49.018;12.078;2022-12-29T05:11:53;97402.06;;;2.16;82.96
26083;BME280;13848;49.018;12.078;2022-12-29T05:14:19;97404.75;;;2.08;83.18
26083;BME280;13848;49.018;12.078;2022-12-29T05:16:45;97403.72;;;2.17;83.21
26083;BME280;13848;49.018;12.078;2022-12-29T05:19:12;97399.41;;;2.16;82.89
26083;BME280;13848;49.018;12.078;2022-12-29T05:21:38;97389.59;;;2.17;83.13
26083;BME280;13848;49.018;12.078;2022-12-29T05:24:04;97393.78;;;2.11;83.30
26083;BME280;13848;49.018;12.078;2022-12-29T05:26:30;97391.44;;;2.16;83.17
26083;BME280;13848;49.018;12.078;2022-12-29T05:28:56;97390.81;;;2.06;83.59
26083;BME280;13848;49.018;12.078;2022-12-29T05:31:22;97390.25;;;2.19;83.29
26083;BME280;13848;49.018;12.078;2022-12-29T05:33:48;97396.25;;;2.12;83.73
26083;BME280;13848;49.018;12.078;2022-12-29T05:36:15;97374.75;;;1.99;83.90
26083;BME280;13848;49.018;12.078;2022-12-29T05:38:41;97392.06;;;2.18;83.64
26083;BME280;13848;49.018;12.078;2022-12-29T05:41:08;97388.00;;;2.30;82.67
26083;BME280;13848;49.018;12.078;2022-12-29T05:43:34;97381.25;;;2.20;83.41
26083;BME280;13848;49.018;12.078;2022-12-29T05:46:01;97395.69;;;2.25;83.74
26083;BME280;13848;49.018;12.078;2022-12-29T05:48:27;97378.56;;;2.28;83.58
26083;BME280;13848;49.018;12.078;2022-12-29T05:50:53;97395.81;;;2.09;84.39
26083;BME280;13848;49.018;12.078;2022-12-29T05:53:20;97390.56;;;1.93;84.20
26083;BME280;13848;49.018;12.078;2022-12-29T05:55:47;97385.50;;;2.06;84.54
26083;BME280;13848;49.018;12.078;2022-12-29T05:58:14;97375.69;;;2.06;84.15
26083;BME280;13848;49.018;12.078;2022-12-29T06:00:40;97387.84;;;2.01;84.12
26083;BME280;13848;49.018;12.078;2022-12-29T06:03:06;97378.16;;;2.08;84.18
26083;BME280;13848;49.018;12.078;2022-12-29T06:05:32;97381.84;;;2.07;84.21
26083;BME280;13848;49.018;12.078;2022-12-29T06:07:58;97391.31;;;2.09;83.69
26083;BME280;13848;49.018;12.078;2022-12-29T06:10:26;97384.47;;;2.15;83.70
26083;BME280;13848;49.018;12.078;2022-12-29T06:12:51;97389.09;;;2.21;83.58
26083;BME280;13848;49.018;12.078;2022-12-29T06:15:17;97383.75;;;2.21;83.76
26083;BME280;13848;49.018;12.078;2022-12-29T06:17:44;97383.41;;;2.24;83.50
26083;BME280;13848;49.018;12.078;2022-12-29T06:20:10;97379.84;;;2.32;82.85
26083;BME280;13848;49.018;12.078;2022-12-29T06:22:36;97387.59;;;2.42;82.91
26083;BME280;13848;49.018;12.078;2022-12-29T06:25:03;97386.00;;;2.32;82.73
26083;BME280;13848;49.018;12.078;2022-12-29T06:27:30;97382.09;;;2.43;82.76
26083;BME280;13848;49.018;12.078;2022-12-29T06:29:56;97389.91;;;2.45;82.51
26083;BME280;13848;49.018;12.078;2022-12-29T06:32:22;97381.84;;;2.30;82.96
26083;BME280;13848;49.018;12.078;2022-12-29T06:34:48;97389.31;;;2.34;82.79
26083;BME280;13848;49.018;12.078;2022-12-29T06:37:14;97393.13;;;2.32;82.56
26083;BME280;13848;49.018;12.078;2022-12-29T06:39:40;97396.59;;;2.40;82.68
26083;BME280;13848;49.018;12.078;2022-12-29T06:42:06;97403.56;;;2.42;82.67
26083;BME280;13848;49.018;12.078;2022-12-29T06:44:35;97396.47;;;2.34;82.56
26083;BME280;13848;49.018;12.078;2022-12-29T06:47:01;97382.56;;;2.24;82.60
26083;BME280;13848;49.018;12.078;2022-12-29T06:49:27;97408.84;;;2.50;82.30
26083;BME280;13848;49.018;12.078;2022-12-29T06:51:53;97415.28;;;2.55;81.98
26083;BME280;13848;49.018;12.078;2022-12-29T06:54:19;97418.75;;;2.56;81.35
26083;BME280;13848;49.018;12.078;2022-12-29T06:56:45;97425.75;;;2.57;81.52
26083;BME280;13848;49.018;12.078;2022-12-29T06:59:11;97434.84;;;2.62;81.59
26083;BME280;13848;49.018;12.078;2022-12-29T07:01:38;97423.38;;;2.62;81.31
26083;BME280;13848;49.018;12.078;2022-12-29T07:04:04;97438.94;;;2.50;81.29
26083;BME280;13848;49.018;12.078;2022-12-29T07:06:30;97421.47;;;2.48;81.56
26083;BME280;13848;49.018;12.078;2022-12-29T07:08:56;97410.19;;;2.46;82.00
26083;BME280;13848;49.018;12.078;2022-12-29T07:11:22;97413.06;;;2.36;81.83
26083;BME280;13848;49.018;12.078;2022-12-29T07:13:49;97412.63;;;2.32;81.94
26083;BME280;13848;49.018;12.078;2022-12-29T07:16:15;97406.31;;;2.48;81.79
26083;BME280;13848;49.018;12.078;2022-12-29T07:18:42;97411.09;;;2.38;81.73
26083;BME280;13848;49.018;12.078;2022-12-29T07:21:08;97419.47;;;2.27;82.49
26083;BME280;13848;49.018;12.078;2022-12-29T07:23:34;97408.00;;;2.26;82.29
26083;BME280;13848;49.018;12.078;2022-12-29T07:26:00;97398.03;;;2.20;82.44
26083;BME280;13848;49.018;12.078;2022-12-29T07:28:26;97422.72;;;2.06;83.22
26083;BME280;13848;49.018;12.078;2022-12-29T07:30:52;97401.59;;;2.12;83.00
26083;BME280;13848;49.018;12.078;2022-12-29T07:33:18;97417.66;;;2.19;82.60
26083;BME280;13848;49.018;12.078;2022-12-29T07:35:45;97421.38;;;2.10;83.12
26083;BME280;13848;49.018;12.078;2022-12-29T07:38:11;97415.06;;;2.11;82.69
26083;BME280;13848;49.018;12.078;2022-12-29T07:40:37;97416.22;;;2.08;83.25
26083;BME280;13848;49.018;12.078;2022-12-29T07:43:03;97421.69;;;2.15;82.45
26083;BME280;13848;49.018;12.078;2022-12-29T07:45:29;97409.78;;;2.03;82.89
26083;BME280;13848;49.018;12.078;2022-12-29T07:47:55;97407.47;;;2.00;82.99
26083;BME280;13848;49.018;12.078;2022-12-29T07:50:21;97401.94;;;2.09;83.17
26083;BME280;13848;49.018;12.078;2022-12-29T07:52:48;97413.53;;;2.17;82.73
26083;BME280;13848;49.018;12.078;2022-12-29T07:55:15;97387.38;;;2.28;82.27
26083;BME280;13848;49.018;12.078;2022-12-29T07:57:41;97419.69;;;2.17;82.29
26083;BME280;13848;49.018;12.078;2022-12-29T08:00:08;97418.75;;;2.33;82.02
26083;BME280;13848;49.018;12.078;2022-12-29T08:02:34;97399.66;;;2.29;81.80
26083;BME280;13848;49.018;12.078;2022-12-29T08:05:00;97405.97;;;2.28;81.74
26083;BME280;13848;49.018;12.078;2022-12-29T08:07:26;97391.25;;;2.40;81.70
26083;BME280;13848;49.018;12.078;2022-12-29T08:09:53;97403.84;;;2.24;82.02
26083;BME280;13848;49.018;12.078;2022-12-29T08:12:19;97388.94;;;2.37;81.69
26083;BME280;13848;49.018;12.078;2022-12-29T08:14:45;97399.59;;;2.37;81.47
26083;BME280;13848;49.018;12.078;2022-12-29T08:17:11;97414.88;;;2.44;81.81
26083;BME280;13848;49.018;12.078;2022-12-29T08:19:38;97408.97;;;2.71;81.34
26083;BME280;13848;49.018;12.078;2022-12-29T08:22:04;97418.59;;;2.95;80.25
26083;BME280;13848;49.018;12.078;2022-12-29T08:24:30;97429.25;;;2.95;79.52
26083;BME280;13848;49.018;12.078;2022-12-29T08:26:57;97430.06;;;3.33;80.01
26083;BME280;13848;49.018;12.078;2022-12-29T08:29:23;97440.44;;;3.28;78.73
26083;BME280;13848;49.018;12.078;2022-12-29T08:31:49;97441.88;;;3.16;78.74
26083;BME280;13848;49.018;12.078;2022-12-29T08:34:15;97450.16;;;3.21;78.75
26083;BME280;13848;49.018;12.078;2022-12-29T08:36:41;97439.41;;;3.29;79.00
26083;BME280;13848;49.018;12.078;2022-12-29T08:39:06;97441.09;;;3.45;78.13
26083;BME280;13848;49.018;12.078;2022-12-29T08:41:32;97440.38;;;3.66;77.93
26083;BME280;13848;49.018;12.078;2022-12-29T08:44:00;97442.09;;;3.59;76.74
26083;BME280;13848;49.018;12.078;2022-12-29T08:46:26;97447.19;;;3.83;77.77
26083;BME280;13848;49.018;12.078;2022-12-29T08:48:53;97449.56;;;3.78;77.06
26083;BME280;13848;49.018;12.078;2022-12-29T08:51:19;97447.06;;;3.62;77.20
26083;BME280;13848;49.018;12.078;2022-12-29T08:53:45;97443.56;;;3.76;77.26
26083;BME280;13848;49.018;12.078;2022-12-29T08:56:11;97437.13;;;3.85;76.74
26083;BME280;13848;49.018;12.078;2022-12-29T08:58:37;97439.97;;;3.98;76.73
26083;BME280;13848;49.018;12.078;2022-12-29T09:01:04;97435.97;;;4.24;75.96
26083;BME280;13848;49.018;12.078;2022-12-29T09:03:30;97438.06;;;4.28;76.50
26083;BME280;13848;49.018;12.078;2022-12-29T09:05:56;97439.81;;;4.36;76.09
26083;BME280;13848;49.018;12.078;2022-12-29T09:08:22;97441.88;;;4.19;76.20
26083;BME280;13848;49.018;12.078;2022-12-29T09:10:49;97438.91;;;4.29;75.77
26083;BME280;13848;49.018;12.078;2022-12-29T09:13:15;97437.09;;;4.15;76.36
26083;BME280;13848;49.018;12.078;2022-12-29T09:15:42;97438.38;;;4.19;76.12
26083;BME280;13848;49.018;12.078;2022-12-29T09:18:10;97429.88;;;4.30;74.92
26083;BME280;13848;49.018;12.078;2022-12-29T09:20:36;97446.78;;;4.37;74.86
26083;BME280;13848;49.018;12.078;2022-12-29T09:23:02;97438.03;;;4.43;75.24
26083;BME280;13848;49.018;12.078;2022-12-29T09:25:29;97445.94;;;4.73;74.85
26083;BME280;13848;49.018;12.078;2022-12-29T09:27:55;97435.00;;;4.89;74.37
26083;BME280;13848;49.018;12.078;2022-12-29T09:30:22;97435.94;;;5.03;74.42
26083;BME280;13848;49.018;12.078;2022-12-29T09:32:49;97443.97;;;5.31;74.24
26083;BME280;13848;49.018;12.078;2022-12-29T09:35:17;97428.91;;;5.51;72.66
26083;BME280;13848;49.018;12.078;2022-12-29T09:37:43;97435.72;;;5.60;72.11
26083;BME280;13848;49.018;12.078;2022-12-29T09:40:22;97430.16;;;5.27;73.55
26083;BME280;13848;49.018;12.078;2022-12-29T09:42:55;97434.88;;;5.25;72.81
26083;BME280;13848;49.018;12.078;2022-12-29T09:45:29;97432.41;;;5.24;72.86
26083;BME280;13848;49.018;12.078;2022-12-29T09:47:58;97418.88;;;5.32;71.79
26083;BME280;13848;49.018;12.078;2022-12-29T09:50:28;97433.28;;;5.31;72.23
26083;BME280;13848;49.018;12.078;2022-12-29T09:53:00;97423.84;;;5.35;73.56
26083;BME280;13848;49.018;12.078;2022-12-29T09:55:33;97417.44;;;5.57;72.59
26083;BME280;13848;49.018;12.078;2022-12-29T09:58:02;97410.22;;;5.93;70.80
26083;BME280;13848;49.018;12.078;2022-12-29T10:00:36;97402.28;;;5.78;71.54
26083;BME280;13848;49.018;12.078;2022-12-29T10:03:07;97400.16;;;5.60;71.41
26083;BME280;13848;49.018;12.078;2022-12-29T10:05:43;97401.81;;;5.33;71.57
26083;BME280;13848;49.018;12.078;2022-12-29T10:08:22;97403.28;;;5.70;71.46
26083;BME280;13848;49.018;12.078;2022-12-29T10:10:55;97409.16;;;6.48;70.07
26083;BME280;13848;49.018;12.078;2022-12-29T10:13:30;97396.94;;;6.26;71.77
26083;BME280;13848;49.018;12.078;2022-12-29T10:16:05;97400.88;;;6.23;70.54
26083;BME280;13848;49.018;12.078;2022-12-29T10:18:51;97404.22;;;6.45;69.46
26083;BME280;13848;49.018;12.078;2022-12-29T10:21:28;97387.50;;;6.30;70.49
26083;BME280;13848;49.018;12.078;2022-12-29T10:23:59;97392.06;;;5.88;70.52
26083;BME280;13848;49.018;12.078;2022-12-29T10:26:40;97382.16;;;5.82;71.19
26083;BME280;13848;49.018;12.078;2022-12-29T10:29:13;97384.78;;;5.69;70.98
26083;BME280;13848;49.018;12.078;2022-12-29T10:31:43;97376.75;;;5.69;72.01
26083;BME280;13848;49.018;12.078;2022-12-29T10:34:15;97362.41;;;5.90;72.40
26083;BME280;13848;49.018;12.078;2022-12-29T10:36:48;97361.66;;;5.96;72.29
26083;BME280;13848;49.018;12.078;2022-12-29T10:39:21;97359.72;;;5.83;72.37
26083;BME280;13848;49.018;12.078;2022-12-29T10:41:50;97348.75;;;6.12;71.95
26083;BME280;13848;49.018;12.078;2022-12-29T10:44:19;97348.94;;;6.04;70.68
26083;BME280;13848;49.018;12.078;2022-12-29T10:46:54;97352.34;;;6.79;70.20
26083;BME280;13848;49.018;12.078;2022-12-29T10:49:21;97354.16;;;7.18;70.59
26083;BME280;13848;49.018;12.078;2022-12-29T10:51:50;97338.34;;;6.97;68.70
26083;BME280;13848;49.018;12.078;2022-12-29T10:54:25;97349.84;;;7.37;68.98
26083;BME280;13848;49.018;12.078;2022-12-29T10:56:54;97345.16;;;7.78;66.91
26083;BME280;13848;49.018;12.078;2022-12-29T10:59:24;97349.34;;;7.60;68.00
26083;BME280;13848;49.018;12.078;2022-12-29T11:01:56;97349.75;;;7.57;67.64
26083;BME280;13848;49.018;12.078;2022-12-29T11:04:41;97346.63;;;7.73;67.33
26083;BME280;13848;49.018;12.078;2022-12-29T11:07:11;97352.00;;;7.73;66.44
26083;BME280;13848;49.018;12.078;2022-12-29T11:09:39;97352.25;;;7.52;68.27
26083;BME280;13848;49.018;12.078;2022-12-29T11:12:19;97340.78;;;7.90;67.51
26083;BME280;13848;49.018;12.078;2022-12-29T11:14:45;97339.13;;;8.27;68.10
26083;BME280;13848;49.018;12.078;2022-12-29T11:17:15;97346.50;;;8.00;66.02
26083;BME280;13848;49.018;12.078;2022-12-29T11:19:41;97334.47;;;7.64;66.53
26083;BME280;13848;49.018;12.078;2022-12-29T11:22:19;97335.91;;;8.18;65.56
26083;BME280;13848;49.018;12.078;2022-12-29T11:24:47;97338.97;;;8.60;66.86
26083;BME280;13848;49.018;12.078;2022-12-29T11:27:15;97340.19;;;8.64;65.60
26083;BME280;13848;49.018;12.078;2022-12-29T11:29:45;97339.81;;;9.11;66.75
26083;BME280;13848;49.018;12.078;2022-12-29T11:32:13;97334.41;;;9.54;63.03
26083;BME280;13848;49.018;12.078;2022-12-29T11:34:43;97332.50;;;9.18;64.30
26083;BME280;13848;49.018;12.078;2022-12-29T11:37:13;97328.88;;;8.80;64.64
26083;BME280;13848;49.018;12.078;2022-12-29T11:39:45;97326.41;;;8.54;65.75
26083;BME280;13848;49.018;12.078;2022-12-29T11:42:15;97321.81;;;9.84;64.01
26083;BME280;13848;49.018;12.078;2022-12-29T11:44:43;97327.72;;;11.77;60.38
26083;BME280;13848;49.018;12.078;2022-12-29T11:47:13;97320.63;;;12.28;59.71
26083;BME280;13848;49.018;12.078;2022-12-29T11:49:49;97330.88;;;13.94;57.36
26083;BME280;13848;49.018;12.078;2022-12-29T11:52:21;97319.16;;;14.59;57.34
26083;BME280;13848;49.018;12.078;2022-12-29T11:54:48;97317.53;;;14.09;50.98
26083;BME280;13848;49.018;12.078;2022-12-29T11:57:15;97304.34;;;13.96;53.04
26083;BME280;13848;49.018;12.078;2022-12-29T11:59:43;97312.00;;;13.05;53.50
26083;BME280;13848;49.018;12.078;2022-12-29T12:02:33;97305.50;;;12.27;54.29
26083;BME280;13848;49.018;12.078;2022-12-29T12:05:06;97300.69;;;12.01;55.94
26083;BME280;13848;49.018;12.078;2022-12-29T12:07:40;97299.19;;;12.67;55.16
26083;BME280;13848;49.018;12.078;2022-12-29T12:10:16;97295.75;;;13.22;55.92
26083;BME280;13848;49.018;12.078;2022-12-29T12:12:48;97289.00;;;13.08;52.96
26083;BME280;13848;49.018;12.078;2022-12-29T12:15:20;97285.72;;;14.27;52.69
26083;BME280;13848;49.018;12.078;2022-12-29T12:17:49;97288.44;;;15.60;52.34
26083;BME280;13848;49.018;12.078;2022-12-29T12:20:19;97293.53;;;15.99;51.65
26083;BME280;13848;49.018;12.078;2022-12-29T12:22:54;97275.78;;;16.74;47.06
26083;BME280;13848;49.018;12.078;2022-12-29T12:25:27;97276.13;;;14.19;49.21
26083;BME280;13848;49.018;12.078;2022-12-29T12:27:58;97274.72;;;12.45;52.78
26083;BME280;13848;49.018;12.078;2022-12-29T12:30:28;97276.66;;;12.33;54.22
26083;BME280;13848;49.018;12.078;2022-12-29T12:32:58;97266.84;;;12.27;54.88
26083;BME280;13848;49.018;12.078;2022-12-29T12:35:32;97265.28;;;12.31;54.79
26083;BME280;13848;49.018;12.078;2022-12-29T12:38:16;97260.50;;;11.92;54.66
26083;BME280;13848;49.018;12.078;2022-12-29T12:40:59;97267.28;;;11.66;55.23
26083;BME280;13848;49.018;12.078;2022-12-29T12:43:39;97260.16;;;11.49;56.13
26083;BME280;13848;49.018;12.078;2022-12-29T12:46:17;97269.81;;;11.21;56.12
26083;BME280;13848;49.018;12.078;2022-12-29T12:51:45;97258.66;;;10.94;57.38
26083;BME280;13848;49.018;12.078;2022-12-29T12:54:25;97253.75;;;10.91;57.72
26083;BME280;13848;49.018;12.078;2022-12-29T12:57:05;97249.28;;;10.73;58.08
26083;BME280;13848;49.018;12.078;2022-12-29T12:59:45;97257.69;;;10.65;59.00
26083;BME280;13848;49.018;12.078;2022-12-29T13:02:25;97236.13;;;10.88;58.51
26083;BME280;13848;49.018;12.078;2022-12-29T13:05:21;97243.97;;;10.66;59.49
26083;BME280;13848;49.018;12.078;2022-12-29T13:07:58;97233.31;;;10.60;60.14
26083;BME280;13848;49.018;12.078;2022-12-29T13:10:41;97230.03;;;10.58;59.57
26083;BME280;13848;49.018;12.078;2022-12-29T13:13:32;97230.41;;;10.61;59.92
26083;BME280;13848;49.018;12.078;2022-12-29T13:16:06;97244.59;;;10.69;60.30